Harbeson, Delaware
Current Conditions -  °F | °C
As of 2:54 PM on Thursday 23 Oct 2014 (Local Time) from KGED Reporting Station
Overcast Overcast  
Wind Chill: 58°   Ceiling: 3300
Heat Index: 58°   Visibility: 10mi
Dew Point: 46°   Wind: 7mph
Humidity: 65%   Direction: NA
Pressure: 29.78"   Gusts: NA
Location:  38.72°N, 75.29°W
Report Text: KGED 231854Z AUTO VRB06KT 10SM OVC033 14/08 A2978 RMK AO2 SLP083 T01440078
Loading
Personal Weather Stations






























Interactive Weather Map
Tropical Storm Tracking
New forecast layout! Learn more

10-Day Weather Forecast

Advertisements
Track Severe Weather on mobile